sensor_id;sensor_type;location;lat;lon;timestamp;P1;durP1;ratioP1;P2;durP2;ratioP2
4933;SDS011;2482;49.154;8.254;2024-01-06T00:00:18;8.20;;;5.20;;
4933;SDS011;2482;49.154;8.254;2024-01-06T00:02:47;10.30;;;5.30;;
4933;SDS011;2482;49.154;8.254;2024-01-06T00:05:14;9.73;;;4.80;;
4933;SDS011;2482;49.154;8.254;2024-01-06T00:07:41;8.07;;;4.23;;
4933;SDS011;2482;49.154;8.254;2024-01-06T00:10:08;8.33;;;4.47;;
4933;SDS011;2482;49.154;8.254;2024-01-06T00:12:35;10.63;;;4.63;;
4933;SDS011;2482;49.154;8.254;2024-01-06T00:15:03;8.53;;;4.50;;
4933;SDS011;2482;49.154;8.254;2024-01-06T00:17:31;8.53;;;4.73;;
4933;SDS011;2482;49.154;8.254;2024-01-06T00:19:58;7.57;;;3.80;;
4933;SDS011;2482;49.154;8.254;2024-01-06T00:22:26;6.83;;;4.17;;
4933;SDS011;2482;49.154;8.254;2024-01-06T00:24:53;9.10;;;3.50;;
4933;SDS011;2482;49.154;8.254;2024-01-06T00:27:21;11.37;;;4.60;;
4933;SDS011;2482;49.154;8.254;2024-01-06T00:29:48;10.20;;;3.73;;
4933;SDS011;2482;49.154;8.254;2024-01-06T00:32:15;8.17;;;4.13;;
4933;SDS011;2482;49.154;8.254;2024-01-06T00:34:42;8.73;;;4.13;;
4933;SDS011;2482;49.154;8.254;2024-01-06T00:37:09;7.07;;;3.60;;
4933;SDS011;2482;49.154;8.254;2024-01-06T00:39:36;4.03;;;2.80;;
4933;SDS011;2482;49.154;8.254;2024-01-06T00:42:03;5.83;;;3.13;;
4933;SDS011;2482;49.154;8.254;2024-01-06T00:44:30;6.37;;;3.33;;
4933;SDS011;2482;49.154;8.254;2024-01-06T00:46:57;8.47;;;3.63;;
4933;SDS011;2482;49.154;8.254;2024-01-06T00:49:24;5.40;;;2.50;;
4933;SDS011;2482;49.154;8.254;2024-01-06T00:51:51;7.20;;;2.83;;
4933;SDS011;2482;49.154;8.254;2024-01-06T00:54:19;3.40;;;2.30;;
4933;SDS011;2482;49.154;8.254;2024-01-06T00:56:46;3.87;;;2.83;;
4933;SDS011;2482;49.154;8.254;2024-01-06T00:59:13;3.60;;;2.57;;
4933;SDS011;2482;49.154;8.254;2024-01-06T01:01:40;8.73;;;2.50;;
4933;SDS011;2482;49.154;8.254;2024-01-06T01:04:07;8.53;;;3.27;;
4933;SDS011;2482;49.154;8.254;2024-01-06T01:06:36;4.77;;;2.57;;
4933;SDS011;2482;49.154;8.254;2024-01-06T01:09:03;7.13;;;2.23;;
4933;SDS011;2482;49.154;8.254;2024-01-06T01:11:30;6.20;;;2.63;;
4933;SDS011;2482;49.154;8.254;2024-01-06T01:13:58;5.47;;;2.03;;
4933;SDS011;2482;49.154;8.254;2024-01-06T01:16:25;7.47;;;2.97;;
4933;SDS011;2482;49.154;8.254;2024-01-06T01:18:52;4.37;;;2.40;;
4933;SDS011;2482;49.154;8.254;2024-01-06T01:21:22;3.70;;;2.30;;
4933;SDS011;2482;49.154;8.254;2024-01-06T01:23:49;2.90;;;2.20;;
4933;SDS011;2482;49.154;8.254;2024-01-06T01:26:16;5.10;;;2.23;;
4933;SDS011;2482;49.154;8.254;2024-01-06T01:28:43;3.37;;;2.27;;
4933;SDS011;2482;49.154;8.254;2024-01-06T01:31:10;3.03;;;2.30;;
4933;SDS011;2482;49.154;8.254;2024-01-06T01:33:40;5.00;;;1.90;;
4933;SDS011;2482;49.154;8.254;2024-01-06T01:36:07;4.13;;;2.80;;
4933;SDS011;2482;49.154;8.254;2024-01-06T01:38:34;4.53;;;2.87;;
4933;SDS011;2482;49.154;8.254;2024-01-06T01:41:01;3.70;;;2.30;;
4933;SDS011;2482;49.154;8.254;2024-01-06T01:43:28;7.30;;;2.90;;
4933;SDS011;2482;49.154;8.254;2024-01-06T01:45:56;5.70;;;2.33;;
4933;SDS011;2482;49.154;8.254;2024-01-06T01:48:24;4.03;;;2.50;;
4933;SDS011;2482;49.154;8.254;2024-01-06T01:50:52;4.33;;;2.30;;
4933;SDS011;2482;49.154;8.254;2024-01-06T01:53:20;6.50;;;2.10;;
4933;SDS011;2482;49.154;8.254;2024-01-06T01:55:50;6.47;;;2.00;;
4933;SDS011;2482;49.154;8.254;2024-01-06T01:58:17;3.07;;;1.87;;
4933;SDS011;2482;49.154;8.254;2024-01-06T02:00:44;5.00;;;2.00;;
4933;SDS011;2482;49.154;8.254;2024-01-06T02:03:12;5.53;;;1.83;;
4933;SDS011;2482;49.154;8.254;2024-01-06T02:05:40;4.80;;;2.00;;
4933;SDS011;2482;49.154;8.254;2024-01-06T02:08:07;2.97;;;2.10;;
4933;SDS011;2482;49.154;8.254;2024-01-06T02:10:35;2.70;;;1.73;;
4933;SDS011;2482;49.154;8.254;2024-01-06T02:13:11;2.67;;;1.70;;
4933;SDS011;2482;49.154;8.254;2024-01-06T02:15:38;6.20;;;2.47;;
4933;SDS011;2482;49.154;8.254;2024-01-06T02:18:06;4.80;;;2.33;;
4933;SDS011;2482;49.154;8.254;2024-01-06T02:20:34;2.73;;;2.00;;
4933;SDS011;2482;49.154;8.254;2024-01-06T02:23:01;6.70;;;2.50;;
4933;SDS011;2482;49.154;8.254;2024-01-06T02:25:28;3.47;;;2.50;;
4933;SDS011;2482;49.154;8.254;2024-01-06T02:27:55;4.97;;;2.27;;
4933;SDS011;2482;49.154;8.254;2024-01-06T02:30:23;7.93;;;3.37;;
4933;SDS011;2482;49.154;8.254;2024-01-06T02:32:50;8.37;;;3.20;;
4933;SDS011;2482;49.154;8.254;2024-01-06T02:35:17;3.83;;;2.70;;
4933;SDS011;2482;49.154;8.254;2024-01-06T02:37:47;4.83;;;2.50;;
4933;SDS011;2482;49.154;8.254;2024-01-06T02:40:14;3.83;;;3.07;;
4933;SDS011;2482;49.154;8.254;2024-01-06T02:42:41;4.83;;;2.60;;
4933;SDS011;2482;49.154;8.254;2024-01-06T02:45:08;5.03;;;2.83;;
4933;SDS011;2482;49.154;8.254;2024-01-06T02:47:36;3.73;;;2.60;;
4933;SDS011;2482;49.154;8.254;2024-01-06T02:50:03;3.93;;;2.50;;
4933;SDS011;2482;49.154;8.254;2024-01-06T02:52:31;3.20;;;2.13;;
4933;SDS011;2482;49.154;8.254;2024-01-06T02:54:58;3.50;;;2.40;;
4933;SDS011;2482;49.154;8.254;2024-01-06T02:57:27;4.97;;;2.83;;
4933;SDS011;2482;49.154;8.254;2024-01-06T02:59:56;3.13;;;1.90;;
4933;SDS011;2482;49.154;8.254;2024-01-06T03:02:23;3.90;;;2.33;;
4933;SDS011;2482;49.154;8.254;2024-01-06T03:04:50;4.73;;;2.37;;
4933;SDS011;2482;49.154;8.254;2024-01-06T03:07:17;2.60;;;1.90;;
4933;SDS011;2482;49.154;8.254;2024-01-06T03:09:44;4.73;;;2.43;;
4933;SDS011;2482;49.154;8.254;2024-01-06T03:12:12;7.93;;;3.40;;
4933;SDS011;2482;49.154;8.254;2024-01-06T03:14:39;3.90;;;2.27;;
4933;SDS011;2482;49.154;8.254;2024-01-06T03:17:06;4.20;;;2.20;;
4933;SDS011;2482;49.154;8.254;2024-01-06T03:19:33;5.93;;;2.07;;
4933;SDS011;2482;49.154;8.254;2024-01-06T03:22:00;4.17;;;2.93;;
4933;SDS011;2482;49.154;8.254;2024-01-06T03:24:27;4.57;;;1.93;;
4933;SDS011;2482;49.154;8.254;2024-01-06T03:26:54;6.13;;;2.63;;
4933;SDS011;2482;49.154;8.254;2024-01-06T03:29:21;6.20;;;2.70;;
4933;SDS011;2482;49.154;8.254;2024-01-06T03:31:48;8.00;;;4.60;;
4933;SDS011;2482;49.154;8.254;2024-01-06T03:34:15;6.07;;;3.10;;
4933;SDS011;2482;49.154;8.254;2024-01-06T03:36:43;6.17;;;3.30;;
4933;SDS011;2482;49.154;8.254;2024-01-06T03:39:10;5.57;;;2.93;;
4933;SDS011;2482;49.154;8.254;2024-01-06T03:41:37;4.17;;;2.80;;
4933;SDS011;2482;49.154;8.254;2024-01-06T03:44:04;3.10;;;2.80;;
4933;SDS011;2482;49.154;8.254;2024-01-06T03:46:32;3.63;;;3.23;;
4933;SDS011;2482;49.154;8.254;2024-01-06T03:49:02;4.93;;;2.77;;
4933;SDS011;2482;49.154;8.254;2024-01-06T03:51:30;5.20;;;2.83;;
4933;SDS011;2482;49.154;8.254;2024-01-06T03:53:57;3.90;;;2.50;;
4933;SDS011;2482;49.154;8.254;2024-01-06T03:56:24;9.90;;;3.03;;
4933;SDS011;2482;49.154;8.254;2024-01-06T03:58:51;6.93;;;2.77;;
4933;SDS011;2482;49.154;8.254;2024-01-06T04:01:18;5.03;;;2.40;;
4933;SDS011;2482;49.154;8.254;2024-01-06T04:03:45;6.50;;;2.90;;
4933;SDS011;2482;49.154;8.254;2024-01-06T04:06:12;3.70;;;3.27;;
4933;SDS011;2482;49.154;8.254;2024-01-06T04:08:40;6.27;;;2.57;;
4933;SDS011;2482;49.154;8.254;2024-01-06T04:11:07;5.37;;;3.30;;
4933;SDS011;2482;49.154;8.254;2024-01-06T04:13:34;5.00;;;3.00;;
4933;SDS011;2482;49.154;8.254;2024-01-06T04:16:01;4.80;;;2.47;;
4933;SDS011;2482;49.154;8.254;2024-01-06T04:18:29;5.57;;;2.77;;
4933;SDS011;2482;49.154;8.254;2024-01-06T04:20:56;5.93;;;2.97;;
4933;SDS011;2482;49.154;8.254;2024-01-06T04:23:23;5.60;;;3.07;;
4933;SDS011;2482;49.154;8.254;2024-01-06T04:25:51;6.43;;;2.77;;
4933;SDS011;2482;49.154;8.254;2024-01-06T04:28:19;4.70;;;2.73;;
4933;SDS011;2482;49.154;8.254;2024-01-06T04:30:46;7.10;;;3.10;;
4933;SDS011;2482;49.154;8.254;2024-01-06T04:33:13;5.00;;;2.67;;
4933;SDS011;2482;49.154;8.254;2024-01-06T04:35:40;6.77;;;2.70;;
4933;SDS011;2482;49.154;8.254;2024-01-06T04:38:07;5.63;;;3.10;;
4933;SDS011;2482;49.154;8.254;2024-01-06T04:40:35;5.90;;;2.40;;
4933;SDS011;2482;49.154;8.254;2024-01-06T04:43:02;5.77;;;2.47;;
4933;SDS011;2482;49.154;8.254;2024-01-06T04:45:30;2.97;;;2.20;;
4933;SDS011;2482;49.154;8.254;2024-01-06T04:47:57;8.67;;;2.80;;
4933;SDS011;2482;49.154;8.254;2024-01-06T04:50:24;3.47;;;2.50;;
4933;SDS011;2482;49.154;8.254;2024-01-06T04:52:51;5.30;;;2.50;;
4933;SDS011;2482;49.154;8.254;2024-01-06T04:55:18;2.50;;;2.27;;
4933;SDS011;2482;49.154;8.254;2024-01-06T04:57:45;2.80;;;2.00;;
4933;SDS011;2482;49.154;8.254;2024-01-06T05:00:12;5.00;;;2.00;;
4933;SDS011;2482;49.154;8.254;2024-01-06T05:02:40;2.63;;;2.43;;
4933;SDS011;2482;49.154;8.254;2024-01-06T05:05:08;4.70;;;2.60;;
4933;SDS011;2482;49.154;8.254;2024-01-06T05:07:35;7.93;;;3.00;;
4933;SDS011;2482;49.154;8.254;2024-01-06T05:10:02;9.83;;;3.73;;
4933;SDS011;2482;49.154;8.254;2024-01-06T05:12:29;5.43;;;2.80;;
4933;SDS011;2482;49.154;8.254;2024-01-06T05:14:56;4.27;;;2.70;;
4933;SDS011;2482;49.154;8.254;2024-01-06T05:17:23;5.63;;;2.47;;
4933;SDS011;2482;49.154;8.254;2024-01-06T05:19:50;2.90;;;2.10;;
4933;SDS011;2482;49.154;8.254;2024-01-06T05:22:17;3.90;;;2.07;;
4933;SDS011;2482;49.154;8.254;2024-01-06T05:24:44;3.37;;;2.20;;
4933;SDS011;2482;49.154;8.254;2024-01-06T05:27:12;4.97;;;2.23;;
4933;SDS011;2482;49.154;8.254;2024-01-06T05:29:39;2.13;;;1.93;;
4933;SDS011;2482;49.154;8.254;2024-01-06T05:32:06;3.63;;;2.40;;
4933;SDS011;2482;49.154;8.254;2024-01-06T05:34:33;11.27;;;2.80;;
4933;SDS011;2482;49.154;8.254;2024-01-06T05:37:01;5.23;;;2.63;;
4933;SDS011;2482;49.154;8.254;2024-01-06T05:39:28;3.20;;;2.27;;
4933;SDS011;2482;49.154;8.254;2024-01-06T05:41:55;6.33;;;2.57;;
4933;SDS011;2482;49.154;8.254;2024-01-06T05:44:22;6.70;;;2.73;;
4933;SDS011;2482;49.154;8.254;2024-01-06T05:46:49;7.63;;;2.70;;
4933;SDS011;2482;49.154;8.254;2024-01-06T05:49:17;6.20;;;2.37;;
4933;SDS011;2482;49.154;8.254;2024-01-06T05:51:44;9.30;;;3.73;;
4933;SDS011;2482;49.154;8.254;2024-01-06T05:54:12;9.33;;;2.90;;
4933;SDS011;2482;49.154;8.254;2024-01-06T05:56:40;5.40;;;2.50;;
4933;SDS011;2482;49.154;8.254;2024-01-06T05:59:07;7.33;;;2.50;;
4933;SDS011;2482;49.154;8.254;2024-01-06T06:01:34;4.00;;;2.43;;
4933;SDS011;2482;49.154;8.254;2024-01-06T06:04:01;4.97;;;2.40;;
4933;SDS011;2482;49.154;8.254;2024-01-06T06:06:29;4.87;;;2.70;;
4933;SDS011;2482;49.154;8.254;2024-01-06T06:08:56;3.33;;;3.00;;
4933;SDS011;2482;49.154;8.254;2024-01-06T06:11:24;5.77;;;2.53;;
4933;SDS011;2482;49.154;8.254;2024-01-06T06:13:51;5.43;;;2.50;;
4933;SDS011;2482;49.154;8.254;2024-01-06T06:16:18;7.30;;;2.50;;
4933;SDS011;2482;49.154;8.254;2024-01-06T06:18:45;4.90;;;2.10;;
4933;SDS011;2482;49.154;8.254;2024-01-06T06:21:12;6.87;;;3.37;;
4933;SDS011;2482;49.154;8.254;2024-01-06T06:23:39;4.30;;;2.70;;
4933;SDS011;2482;49.154;8.254;2024-01-06T06:26:06;3.57;;;2.60;;
4933;SDS011;2482;49.154;8.254;2024-01-06T06:28:34;4.67;;;3.07;;
4933;SDS011;2482;49.154;8.254;2024-01-06T06:31:02;2.97;;;2.57;;
4933;SDS011;2482;49.154;8.254;2024-01-06T06:33:30;7.07;;;2.13;;
4933;SDS011;2482;49.154;8.254;2024-01-06T06:35:59;4.27;;;2.40;;
4933;SDS011;2482;49.154;8.254;2024-01-06T06:38:27;9.60;;;2.80;;
4933;SDS011;2482;49.154;8.254;2024-01-06T06:40:55;4.90;;;2.30;;
4933;SDS011;2482;49.154;8.254;2024-01-06T06:43:22;4.57;;;2.63;;
4933;SDS011;2482;49.154;8.254;2024-01-06T06:45:50;6.47;;;2.90;;
4933;SDS011;2482;49.154;8.254;2024-01-06T06:48:17;5.90;;;2.87;;
4933;SDS011;2482;49.154;8.254;2024-01-06T06:50:44;6.43;;;2.60;;
4933;SDS011;2482;49.154;8.254;2024-01-06T06:53:11;6.83;;;2.77;;
4933;SDS011;2482;49.154;8.254;2024-01-06T06:55:39;7.17;;;2.90;;
4933;SDS011;2482;49.154;8.254;2024-01-06T06:58:07;5.47;;;2.83;;
4933;SDS011;2482;49.154;8.254;2024-01-06T07:00:34;6.43;;;2.80;;
4933;SDS011;2482;49.154;8.254;2024-01-06T07:03:02;5.03;;;2.93;;
4933;SDS011;2482;49.154;8.254;2024-01-06T07:05:29;4.50;;;2.50;;
4933;SDS011;2482;49.154;8.254;2024-01-06T07:07:56;5.97;;;2.63;;
4933;SDS011;2482;49.154;8.254;2024-01-06T07:10:26;6.47;;;2.70;;
4933;SDS011;2482;49.154;8.254;2024-01-06T07:12:54;8.93;;;3.50;;
4933;SDS011;2482;49.154;8.254;2024-01-06T07:15:21;6.50;;;3.07;;
4933;SDS011;2482;49.154;8.254;2024-01-06T07:17:48;8.67;;;3.53;;
4933;SDS011;2482;49.154;8.254;2024-01-06T07:20:15;5.33;;;3.47;;
4933;SDS011;2482;49.154;8.254;2024-01-06T07:22:42;6.43;;;3.53;;
4933;SDS011;2482;49.154;8.254;2024-01-06T07:25:10;11.73;;;3.70;;
4933;SDS011;2482;49.154;8.254;2024-01-06T07:27:37;8.40;;;3.50;;
4933;SDS011;2482;49.154;8.254;2024-01-06T07:30:04;5.10;;;3.10;;
4933;SDS011;2482;49.154;8.254;2024-01-06T07:32:34;4.43;;;3.30;;
4933;SDS011;2482;49.154;8.254;2024-01-06T07:35:01;9.30;;;3.43;;
4933;SDS011;2482;49.154;8.254;2024-01-06T07:37:33;4.90;;;2.90;;
4933;SDS011;2482;49.154;8.254;2024-01-06T07:40:00;6.00;;;3.40;;
4933;SDS011;2482;49.154;8.254;2024-01-06T07:42:27;7.03;;;3.73;;
4933;SDS011;2482;49.154;8.254;2024-01-06T07:44:54;4.97;;;3.33;;
4933;SDS011;2482;49.154;8.254;2024-01-06T07:47:21;7.00;;;3.53;;
4933;SDS011;2482;49.154;8.254;2024-01-06T07:49:48;6.10;;;3.17;;
4933;SDS011;2482;49.154;8.254;2024-01-06T07:52:15;9.70;;;3.23;;
4933;SDS011;2482;49.154;8.254;2024-01-06T07:54:43;7.10;;;3.30;;
4933;SDS011;2482;49.154;8.254;2024-01-06T07:57:10;6.80;;;3.97;;
4933;SDS011;2482;49.154;8.254;2024-01-06T07:59:38;6.63;;;3.47;;
4933;SDS011;2482;49.154;8.254;2024-01-06T08:02:05;7.50;;;3.43;;
4933;SDS011;2482;49.154;8.254;2024-01-06T08:04:32;4.90;;;3.13;;
4933;SDS011;2482;49.154;8.254;2024-01-06T08:07:00;6.60;;;3.73;;
4933;SDS011;2482;49.154;8.254;2024-01-06T08:09:27;5.63;;;4.40;;
4933;SDS011;2482;49.154;8.254;2024-01-06T08:11:54;6.00;;;4.47;;
4933;SDS011;2482;49.154;8.254;2024-01-06T08:14:21;7.47;;;6.10;;
4933;SDS011;2482;49.154;8.254;2024-01-06T08:16:48;11.87;;;6.53;;
4933;SDS011;2482;49.154;8.254;2024-01-06T08:19:15;8.07;;;6.10;;
4933;SDS011;2482;49.154;8.254;2024-01-06T08:21:42;11.60;;;7.00;;
4933;SDS011;2482;49.154;8.254;2024-01-06T08:24:10;9.97;;;5.20;;
4933;SDS011;2482;49.154;8.254;2024-01-06T08:26:37;10.20;;;6.27;;
4933;SDS011;2482;49.154;8.254;2024-01-06T08:29:04;7.30;;;5.00;;
4933;SDS011;2482;49.154;8.254;2024-01-06T08:31:31;8.60;;;4.90;;
4933;SDS011;2482;49.154;8.254;2024-01-06T08:33:59;10.70;;;4.97;;
4933;SDS011;2482;49.154;8.254;2024-01-06T08:36:27;8.50;;;4.50;;
4933;SDS011;2482;49.154;8.254;2024-01-06T08:38:54;8.13;;;4.47;;
4933;SDS011;2482;49.154;8.254;2024-01-06T08:41:21;9.47;;;5.20;;
4933;SDS011;2482;49.154;8.254;2024-01-06T08:43:48;6.60;;;4.60;;
4933;SDS011;2482;49.154;8.254;2024-01-06T08:46:15;6.97;;;4.30;;
4933;SDS011;2482;49.154;8.254;2024-01-06T08:48:43;6.67;;;4.10;;
4933;SDS011;2482;49.154;8.254;2024-01-06T08:51:10;5.13;;;4.57;;
4933;SDS011;2482;49.154;8.254;2024-01-06T08:53:37;10.53;;;5.30;;
4933;SDS011;2482;49.154;8.254;2024-01-06T08:56:04;10.70;;;6.60;;
4933;SDS011;2482;49.154;8.254;2024-01-06T08:58:32;6.50;;;5.50;;
4933;SDS011;2482;49.154;8.254;2024-01-06T09:00:59;8.47;;;5.33;;
4933;SDS011;2482;49.154;8.254;2024-01-06T09:03:26;9.33;;;5.70;;
4933;SDS011;2482;49.154;8.254;2024-01-06T09:05:55;12.90;;;5.10;;
4933;SDS011;2482;49.154;8.254;2024-01-06T09:08:23;11.30;;;6.07;;
4933;SDS011;2482;49.154;8.254;2024-01-06T09:10:51;7.90;;;5.70;;
4933;SDS011;2482;49.154;8.254;2024-01-06T09:13:21;11.23;;;5.93;;
4933;SDS011;2482;49.154;8.254;2024-01-06T09:15:52;11.50;;;6.00;;
4933;SDS011;2482;49.154;8.254;2024-01-06T09:18:20;10.60;;;6.40;;
4933;SDS011;2482;49.154;8.254;2024-01-06T09:20:47;9.20;;;6.07;;
4933;SDS011;2482;49.154;8.254;2024-01-06T09:23:15;12.17;;;6.27;;
4933;SDS011;2482;49.154;8.254;2024-01-06T09:25:42;10.63;;;6.37;;
4933;SDS011;2482;49.154;8.254;2024-01-06T09:28:10;8.13;;;6.10;;
4933;SDS011;2482;49.154;8.254;2024-01-06T09:30:37;10.03;;;6.27;;
4933;SDS011;2482;49.154;8.254;2024-01-06T09:33:05;6.93;;;5.77;;
4933;SDS011;2482;49.154;8.254;2024-01-06T09:35:34;9.70;;;6.60;;
4933;SDS011;2482;49.154;8.254;2024-01-06T09:38:01;9.90;;;6.37;;
4933;SDS011;2482;49.154;8.254;2024-01-06T09:40:28;7.47;;;6.50;;
4933;SDS011;2482;49.154;8.254;2024-01-06T09:42:58;11.70;;;6.77;;
4933;SDS011;2482;49.154;8.254;2024-01-06T09:45:28;8.73;;;6.50;;
4933;SDS011;2482;49.154;8.254;2024-01-06T09:47:56;10.97;;;7.10;;
4933;SDS011;2482;49.154;8.254;2024-01-06T09:50:25;11.60;;;7.03;;
4933;SDS011;2482;49.154;8.254;2024-01-06T09:52:55;9.87;;;6.27;;
4933;SDS011;2482;49.154;8.254;2024-01-06T09:55:32;9.37;;;6.10;;
4933;SDS011;2482;49.154;8.254;2024-01-06T09:57:59;12.00;;;7.30;;
4933;SDS011;2482;49.154;8.254;2024-01-06T10:00:29;10.87;;;5.57;;
4933;SDS011;2482;49.154;8.254;2024-01-06T10:02:56;9.37;;;6.03;;
4933;SDS011;2482;49.154;8.254;2024-01-06T10:05:24;7.90;;;5.57;;
4933;SDS011;2482;49.154;8.254;2024-01-06T10:07:51;7.17;;;5.67;;
4933;SDS011;2482;49.154;8.254;2024-01-06T10:10:18;7.43;;;5.30;;
4933;SDS011;2482;49.154;8.254;2024-01-06T10:12:47;8.60;;;6.20;;
4933;SDS011;2482;49.154;8.254;2024-01-06T10:15:14;6.67;;;5.70;;
4933;SDS011;2482;49.154;8.254;2024-01-06T10:17:41;7.33;;;5.83;;
4933;SDS011;2482;49.154;8.254;2024-01-06T10:20:09;7.13;;;5.10;;
4933;SDS011;2482;49.154;8.254;2024-01-06T10:22:40;7.13;;;5.13;;
4933;SDS011;2482;49.154;8.254;2024-01-06T10:25:08;8.27;;;5.50;;
4933;SDS011;2482;49.154;8.254;2024-01-06T10:27:37;5.70;;;4.70;;
4933;SDS011;2482;49.154;8.254;2024-01-06T10:30:06;7.83;;;4.40;;
4933;SDS011;2482;49.154;8.254;2024-01-06T10:32:35;6.43;;;5.00;;
4933;SDS011;2482;49.154;8.254;2024-01-06T10:35:03;8.00;;;4.33;;
4933;SDS011;2482;49.154;8.254;2024-01-06T10:37:33;7.00;;;5.27;;
4933;SDS011;2482;49.154;8.254;2024-01-06T10:40:07;6.13;;;4.43;;
4933;SDS011;2482;49.154;8.254;2024-01-06T10:42:39;5.93;;;4.17;;
4933;SDS011;2482;49.154;8.254;2024-01-06T10:45:12;4.33;;;3.83;;
4933;SDS011;2482;49.154;8.254;2024-01-06T10:47:42;6.43;;;4.20;;
4933;SDS011;2482;49.154;8.254;2024-01-06T10:50:10;8.87;;;5.20;;
4933;SDS011;2482;49.154;8.254;2024-01-06T10:52:38;6.10;;;4.07;;
4933;SDS011;2482;49.154;8.254;2024-01-06T10:55:06;5.80;;;4.23;;
4933;SDS011;2482;49.154;8.254;2024-01-06T10:57:34;8.83;;;4.50;;
4933;SDS011;2482;49.154;8.254;2024-01-06T11:00:04;4.77;;;4.30;;
4933;SDS011;2482;49.154;8.254;2024-01-06T11:02:32;6.67;;;4.60;;
4933;SDS011;2482;49.154;8.254;2024-01-06T11:05:00;6.40;;;4.60;;
4933;SDS011;2482;49.154;8.254;2024-01-06T11:07:28;6.10;;;4.57;;
4933;SDS011;2482;49.154;8.254;2024-01-06T11:12:42;5.10;;;3.57;;
4933;SDS011;2482;49.154;8.254;2024-01-06T11:15:10;8.03;;;4.57;;
4933;SDS011;2482;49.154;8.254;2024-01-06T11:18:07;4.77;;;4.27;;
4933;SDS011;2482;49.154;8.254;2024-01-06T11:20:34;8.53;;;4.20;;
4933;SDS011;2482;49.154;8.254;2024-01-06T11:23:18;7.93;;;4.67;;
4933;SDS011;2482;49.154;8.254;2024-01-06T11:25:49;5.13;;;4.13;;
4933;SDS011;2482;49.154;8.254;2024-01-06T11:28:16;6.00;;;3.83;;
4933;SDS011;2482;49.154;8.254;2024-01-06T11:30:44;4.73;;;3.73;;
4933;SDS011;2482;49.154;8.254;2024-01-06T11:33:11;4.27;;;3.80;;
4933;SDS011;2482;49.154;8.254;2024-01-06T11:35:39;4.93;;;4.00;;
4933;SDS011;2482;49.154;8.254;2024-01-06T11:38:07;7.70;;;4.57;;
4933;SDS011;2482;49.154;8.254;2024-01-06T11:40:35;7.17;;;4.40;;
4933;SDS011;2482;49.154;8.254;2024-01-06T11:43:04;7.67;;;4.17;;
4933;SDS011;2482;49.154;8.254;2024-01-06T11:45:36;4.87;;;4.20;;
4933;SDS011;2482;49.154;8.254;2024-01-06T11:48:08;5.53;;;3.97;;
4933;SDS011;2482;49.154;8.254;2024-01-06T11:50:39;4.50;;;3.60;;
4933;SDS011;2482;49.154;8.254;2024-01-06T11:53:08;5.10;;;4.40;;
4933;SDS011;2482;49.154;8.254;2024-01-06T11:55:40;5.00;;;4.43;;
4933;SDS011;2482;49.154;8.254;2024-01-06T11:58:08;5.03;;;3.93;;
4933;SDS011;2482;49.154;8.254;2024-01-06T12:00:36;4.10;;;3.80;;
4933;SDS011;2482;49.154;8.254;2024-01-06T12:03:06;4.67;;;3.70;;
4933;SDS011;2482;49.154;8.254;2024-01-06T12:05:33;4.40;;;4.00;;
4933;SDS011;2482;49.154;8.254;2024-01-06T12:08:01;5.73;;;3.90;;
4933;SDS011;2482;49.154;8.254;2024-01-06T12:10:34;4.97;;;3.97;;
4933;SDS011;2482;49.154;8.254;2024-01-06T12:15:31;4.53;;;4.13;;
4933;SDS011;2482;49.154;8.254;2024-01-06T12:18:01;4.57;;;4.03;;
4933;SDS011;2482;49.154;8.254;2024-01-06T12:20:30;4.30;;;3.90;;
4933;SDS011;2482;49.154;8.254;2024-01-06T12:22:58;5.33;;;3.90;;
4933;SDS011;2482;49.154;8.254;2024-01-06T12:25:27;3.87;;;3.47;;
4933;SDS011;2482;49.154;8.254;2024-01-06T12:27:55;5.33;;;3.90;;
4933;SDS011;2482;49.154;8.254;2024-01-06T12:30:22;4.77;;;3.90;;
4933;SDS011;2482;49.154;8.254;2024-01-06T12:32:51;4.47;;;3.70;;
4933;SDS011;2482;49.154;8.254;2024-01-06T12:35:21;6.60;;;4.57;;
4933;SDS011;2482;49.154;8.254;2024-01-06T12:37:49;5.33;;;3.63;;
4933;SDS011;2482;49.154;8.254;2024-01-06T12:40:17;4.73;;;4.27;;
4933;SDS011;2482;49.154;8.254;2024-01-06T12:42:46;5.70;;;4.23;;
4933;SDS011;2482;49.154;8.254;2024-01-06T12:45:13;4.27;;;3.97;;
4933;SDS011;2482;49.154;8.254;2024-01-06T12:47:43;4.07;;;3.67;;
4933;SDS011;2482;49.154;8.254;2024-01-06T12:50:10;6.20;;;4.07;;
4933;SDS011;2482;49.154;8.254;2024-01-06T12:52:37;7.60;;;4.43;;
4933;SDS011;2482;49.154;8.254;2024-01-06T12:55:06;5.17;;;3.90;;
4933;SDS011;2482;49.154;8.254;2024-01-06T12:57:35;4.30;;;3.70;;
4933;SDS011;2482;49.154;8.254;2024-01-06T13:00:02;4.63;;;4.10;;
4933;SDS011;2482;49.154;8.254;2024-01-06T13:02:32;4.07;;;3.67;;
4933;SDS011;2482;49.154;8.254;2024-01-06T13:04:59;5.20;;;3.93;;
4933;SDS011;2482;49.154;8.254;2024-01-06T13:07:26;5.47;;;4.07;;
4933;SDS011;2482;49.154;8.254;2024-01-06T13:09:53;4.10;;;3.70;;
4933;SDS011;2482;49.154;8.254;2024-01-06T13:12:20;4.80;;;4.20;;
4933;SDS011;2482;49.154;8.254;2024-01-06T13:14:50;4.57;;;3.87;;
4933;SDS011;2482;49.154;8.254;2024-01-06T13:17:17;6.10;;;4.27;;
4933;SDS011;2482;49.154;8.254;2024-01-06T13:19:44;4.63;;;4.07;;
4933;SDS011;2482;49.154;8.254;2024-01-06T13:22:11;5.27;;;4.27;;
4933;SDS011;2482;49.154;8.254;2024-01-06T13:24:39;4.40;;;4.00;;
4933;SDS011;2482;49.154;8.254;2024-01-06T13:27:07;9.30;;;4.20;;
4933;SDS011;2482;49.154;8.254;2024-01-06T13:29:34;5.47;;;4.53;;
4933;SDS011;2482;49.154;8.254;2024-01-06T13:32:01;4.17;;;3.77;;
4933;SDS011;2482;49.154;8.254;2024-01-06T13:34:29;5.10;;;4.43;;
4933;SDS011;2482;49.154;8.254;2024-01-06T13:36:56;4.70;;;4.20;;
4933;SDS011;2482;49.154;8.254;2024-01-06T13:39:23;5.67;;;4.33;;
4933;SDS011;2482;49.154;8.254;2024-01-06T13:41:51;4.20;;;3.80;;
4933;SDS011;2482;49.154;8.254;2024-01-06T13:44:18;5.43;;;4.43;;
4933;SDS011;2482;49.154;8.254;2024-01-06T13:46:45;4.90;;;4.40;;
4933;SDS011;2482;49.154;8.254;2024-01-06T13:49:14;5.53;;;5.03;;
4933;SDS011;2482;49.154;8.254;2024-01-06T13:51:41;6.00;;;5.40;;
4933;SDS011;2482;49.154;8.254;2024-01-06T13:54:09;6.10;;;4.93;;
4933;SDS011;2482;49.154;8.254;2024-01-06T13:56:36;9.33;;;5.40;;
4933;SDS011;2482;49.154;8.254;2024-01-06T13:59:03;6.93;;;5.10;;
4933;SDS011;2482;49.154;8.254;2024-01-06T14:01:31;5.90;;;5.30;;
4933;SDS011;2482;49.154;8.254;2024-01-06T14:03:58;5.83;;;4.50;;
4933;SDS011;2482;49.154;8.254;2024-01-06T14:06:26;6.77;;;5.40;;
4933;SDS011;2482;49.154;8.254;2024-01-06T14:08:57;8.37;;;6.60;;
4933;SDS011;2482;49.154;8.254;2024-01-06T14:11:25;7.77;;;6.97;;
4933;SDS011;2482;49.154;8.254;2024-01-06T14:13:53;6.93;;;5.30;;
4933;SDS011;2482;49.154;8.254;2024-01-06T14:16:20;5.87;;;5.30;;
4933;SDS011;2482;49.154;8.254;2024-01-06T14:18:47;7.57;;;4.67;;
4933;SDS011;2482;49.154;8.254;2024-01-06T14:21:15;8.53;;;5.27;;
4933;SDS011;2482;49.154;8.254;2024-01-06T14:23:45;5.30;;;4.80;;
4933;SDS011;2482;49.154;8.254;2024-01-06T14:26:14;6.97;;;5.20;;
4933;SDS011;2482;49.154;8.254;2024-01-06T14:28:43;5.13;;;4.63;;
4933;SDS011;2482;49.154;8.254;2024-01-06T14:31:10;5.70;;;4.97;;
4933;SDS011;2482;49.154;8.254;2024-01-06T14:33:37;6.43;;;5.63;;
4933;SDS011;2482;49.154;8.254;2024-01-06T14:36:04;7.00;;;4.57;;
4933;SDS011;2482;49.154;8.254;2024-01-06T14:38:32;5.23;;;4.07;;
4933;SDS011;2482;49.154;8.254;2024-01-06T14:40:59;8.27;;;4.80;;
4933;SDS011;2482;49.154;8.254;2024-01-06T14:43:26;6.50;;;5.30;;
4933;SDS011;2482;49.154;8.254;2024-01-06T14:45:53;6.43;;;5.83;;
4933;SDS011;2482;49.154;8.254;2024-01-06T14:48:21;7.07;;;5.73;;
4933;SDS011;2482;49.154;8.254;2024-01-06T14:50:49;7.90;;;5.63;;
4933;SDS011;2482;49.154;8.254;2024-01-06T14:53:16;6.23;;;5.40;;
4933;SDS011;2482;49.154;8.254;2024-01-06T14:55:43;11.13;;;9.30;;
4933;SDS011;2482;49.154;8.254;2024-01-06T14:58:11;9.50;;;6.37;;
4933;SDS011;2482;49.154;8.254;2024-01-06T15:00:38;7.10;;;6.20;;
4933;SDS011;2482;49.154;8.254;2024-01-06T15:03:06;10.67;;;6.67;;
4933;SDS011;2482;49.154;8.254;2024-01-06T15:05:33;8.90;;;8.00;;
4933;SDS011;2482;49.154;8.254;2024-01-06T15:08:01;8.73;;;7.80;;
4933;SDS011;2482;49.154;8.254;2024-01-06T15:10:28;7.97;;;6.57;;
4933;SDS011;2482;49.154;8.254;2024-01-06T15:12:55;14.10;;;9.27;;
4933;SDS011;2482;49.154;8.254;2024-01-06T15:15:22;74.13;;;34.40;;
4933;SDS011;2482;49.154;8.254;2024-01-06T15:17:49;22.90;;;14.47;;
4933;SDS011;2482;49.154;8.254;2024-01-06T15:20:16;11.90;;;9.03;;
4933;SDS011;2482;49.154;8.254;2024-01-06T15:22:43;8.17;;;7.00;;